sensor_id;sensor_type;location;lat;lon;timestamp;P1;durP1;ratioP1;P2;durP2;ratioP2
53925;SDS011;39836;52.754;6.866;2023-10-19T00:01:13;48.17;;;31.42;;
53925;SDS011;39836;52.754;6.866;2023-10-19T00:03:41;51.45;;;31.02;;
53925;SDS011;39836;52.754;6.866;2023-10-19T00:06:09;44.45;;;31.67;;
53925;SDS011;39836;52.754;6.866;2023-10-19T00:08:36;48.95;;;31.42;;
53925;SDS011;39836;52.754;6.866;2023-10-19T00:11:08;51.42;;;31.67;;
53925;SDS011;39836;52.754;6.866;2023-10-19T00:13:36;48.50;;;32.25;;
53925;SDS011;39836;52.754;6.866;2023-10-19T00:16:08;47.70;;;32.40;;
53925;SDS011;39836;52.754;6.866;2023-10-19T00:18:46;46.58;;;33.08;;
53925;SDS011;39836;52.754;6.866;2023-10-19T00:21:13;51.28;;;32.10;;
53925;SDS011;39836;52.754;6.866;2023-10-19T00:24:04;47.10;;;31.35;;
53925;SDS011;39836;52.754;6.866;2023-10-19T00:26:30;51.63;;;33.80;;
53925;SDS011;39836;52.754;6.866;2023-10-19T00:28:56;50.47;;;34.72;;
53925;SDS011;39836;52.754;6.866;2023-10-19T00:31:23;48.60;;;34.17;;
53925;SDS011;39836;52.754;6.866;2023-10-19T00:33:50;55.05;;;35.63;;
53925;SDS011;39836;52.754;6.866;2023-10-19T00:36:19;51.88;;;35.42;;
53925;SDS011;39836;52.754;6.866;2023-10-19T00:38:46;58.40;;;35.85;;
53925;SDS011;39836;52.754;6.866;2023-10-19T00:41:18;54.08;;;35.85;;
53925;SDS011;39836;52.754;6.866;2023-10-19T00:43:49;59.22;;;37.53;;
53925;SDS011;39836;52.754;6.866;2023-10-19T00:46:15;57.58;;;37.53;;
53925;SDS011;39836;52.754;6.866;2023-10-19T00:48:45;54.22;;;36.47;;
53925;SDS011;39836;52.754;6.866;2023-10-19T00:51:14;62.85;;;38.30;;
53925;SDS011;39836;52.754;6.866;2023-10-19T00:53:54;60.08;;;37.25;;
53925;SDS011;39836;52.754;6.866;2023-10-19T00:56:22;62.63;;;39.22;;
53925;SDS011;39836;52.754;6.866;2023-10-19T00:58:52;66.03;;;38.75;;
53925;SDS011;39836;52.754;6.866;2023-10-19T01:01:26;68.45;;;41.13;;
53925;SDS011;39836;52.754;6.866;2023-10-19T01:03:54;64.55;;;38.60;;
53925;SDS011;39836;52.754;6.866;2023-10-19T01:06:24;68.28;;;40.28;;
53925;SDS011;39836;52.754;6.866;2023-10-19T01:08:51;64.25;;;38.85;;
53925;SDS011;39836;52.754;6.866;2023-10-19T01:11:17;74.07;;;40.80;;
53925;SDS011;39836;52.754;6.866;2023-10-19T01:13:46;94.60;;;44.25;;
53925;SDS011;39836;52.754;6.866;2023-10-19T01:16:16;80.18;;;44.22;;
53925;SDS011;39836;52.754;6.866;2023-10-19T01:18:49;73.50;;;43.92;;
53925;SDS011;39836;52.754;6.866;2023-10-19T01:21:19;72.20;;;42.33;;
53925;SDS011;39836;52.754;6.866;2023-10-19T01:23:59;76.88;;;45.35;;
53925;SDS011;39836;52.754;6.866;2023-10-19T01:26:25;89.65;;;46.45;;
53925;SDS011;39836;52.754;6.866;2023-10-19T01:28:51;83.35;;;46.20;;
53925;SDS011;39836;52.754;6.866;2023-10-19T01:31:25;80.88;;;46.38;;
53925;SDS011;39836;52.754;6.866;2023-10-19T01:33:54;82.70;;;45.90;;
53925;SDS011;39836;52.754;6.866;2023-10-19T01:36:21;92.85;;;47.42;;
53925;SDS011;39836;52.754;6.866;2023-10-19T01:38:48;77.43;;;45.83;;
53925;SDS011;39836;52.754;6.866;2023-10-19T01:41:14;85.47;;;44.17;;
53925;SDS011;39836;52.754;6.866;2023-10-19T01:43:43;82.13;;;43.92;;
53925;SDS011;39836;52.754;6.866;2023-10-19T01:46:10;87.50;;;46.70;;
53925;SDS011;39836;52.754;6.866;2023-10-19T01:48:40;79.38;;;45.38;;
53925;SDS011;39836;52.754;6.866;2023-10-19T01:51:09;80.80;;;46.53;;
53925;SDS011;39836;52.754;6.866;2023-10-19T01:53:36;92.82;;;48.22;;
53925;SDS011;39836;52.754;6.866;2023-10-19T01:56:08;85.70;;;47.00;;
53925;SDS011;39836;52.754;6.866;2023-10-19T01:58:38;97.78;;;49.50;;
53925;SDS011;39836;52.754;6.866;2023-10-19T02:01:08;110.03;;;51.63;;
53925;SDS011;39836;52.754;6.866;2023-10-19T02:03:37;91.75;;;48.05;;
53925;SDS011;39836;52.754;6.866;2023-10-19T02:06:12;96.10;;;48.50;;
53925;SDS011;39836;52.754;6.866;2023-10-19T02:08:59;95.22;;;47.05;;
53925;SDS011;39836;52.754;6.866;2023-10-19T02:11:42;99.28;;;49.63;;
53925;SDS011;39836;52.754;6.866;2023-10-19T02:14:08;98.80;;;49.60;;
53925;SDS011;39836;52.754;6.866;2023-10-19T02:16:55;97.95;;;49.53;;
53925;SDS011;39836;52.754;6.866;2023-10-19T02:19:23;109.53;;;50.28;;
53925;SDS011;39836;52.754;6.866;2023-10-19T02:21:50;66.32;;;33.65;;
53925;SDS011;39836;52.754;6.866;2023-10-19T02:24:23;71.93;;;29.48;;
53925;SDS011;39836;52.754;6.866;2023-10-19T02:26:51;64.07;;;29.08;;
53925;SDS011;39836;52.754;6.866;2023-10-19T02:29:21;65.65;;;28.20;;
53925;SDS011;39836;52.754;6.866;2023-10-19T02:31:47;66.75;;;28.42;;
53925;SDS011;39836;52.754;6.866;2023-10-19T02:34:14;64.97;;;27.67;;
53925;SDS011;39836;52.754;6.866;2023-10-19T02:36:40;62.17;;;27.02;;
53925;SDS011;39836;52.754;6.866;2023-10-19T02:39:08;65.35;;;30.42;;
53925;SDS011;39836;52.754;6.866;2023-10-19T02:41:42;62.67;;;26.65;;
53925;SDS011;39836;52.754;6.866;2023-10-19T02:44:13;61.47;;;26.73;;
53925;SDS011;39836;52.754;6.866;2023-10-19T02:46:41;62.60;;;26.38;;
53925;SDS011;39836;52.754;6.866;2023-10-19T02:49:07;52.78;;;24.63;;
53925;SDS011;39836;52.754;6.866;2023-10-19T02:51:38;60.08;;;26.33;;
53925;SDS011;39836;52.754;6.866;2023-10-19T02:54:05;61.40;;;25.60;;
53925;SDS011;39836;52.754;6.866;2023-10-19T02:56:33;56.60;;;25.65;;
53925;SDS011;39836;52.754;6.866;2023-10-19T02:59:00;51.90;;;24.70;;
53925;SDS011;39836;52.754;6.866;2023-10-19T03:01:30;49.75;;;24.25;;
53925;SDS011;39836;52.754;6.866;2023-10-19T03:03:59;56.00;;;24.42;;
53925;SDS011;39836;52.754;6.866;2023-10-19T03:06:27;51.97;;;23.50;;
53925;SDS011;39836;52.754;6.866;2023-10-19T03:08:58;54.83;;;24.30;;
53925;SDS011;39836;52.754;6.866;2023-10-19T03:11:30;62.47;;;25.33;;
53925;SDS011;39836;52.754;6.866;2023-10-19T03:13:59;62.75;;;26.13;;
53925;SDS011;39836;52.754;6.866;2023-10-19T03:16:29;59.35;;;25.83;;
53925;SDS011;39836;52.754;6.866;2023-10-19T03:18:55;58.85;;;25.58;;
53925;SDS011;39836;52.754;6.866;2023-10-19T03:21:21;62.78;;;26.48;;
53925;SDS011;39836;52.754;6.866;2023-10-19T03:23:52;62.10;;;26.48;;
53925;SDS011;39836;52.754;6.866;2023-10-19T03:26:19;60.90;;;24.25;;
53925;SDS011;39836;52.754;6.866;2023-10-19T03:28:48;55.60;;;24.60;;
53925;SDS011;39836;52.754;6.866;2023-10-19T03:31:19;65.25;;;26.58;;
53925;SDS011;39836;52.754;6.866;2023-10-19T03:33:46;63.60;;;23.73;;
53925;SDS011;39836;52.754;6.866;2023-10-19T03:36:21;58.00;;;26.65;;
53925;SDS011;39836;52.754;6.866;2023-10-19T03:38:48;66.28;;;27.38;;
53925;SDS011;39836;52.754;6.866;2023-10-19T03:41:21;67.10;;;24.88;;
53925;SDS011;39836;52.754;6.866;2023-10-19T03:43:49;68.28;;;26.08;;
53925;SDS011;39836;52.754;6.866;2023-10-19T03:46:18;69.20;;;26.63;;
53925;SDS011;39836;52.754;6.866;2023-10-19T03:48:56;69.38;;;27.27;;
53925;SDS011;39836;52.754;6.866;2023-10-19T03:51:29;68.80;;;27.33;;
53925;SDS011;39836;52.754;6.866;2023-10-19T03:54:05;64.87;;;27.13;;
53925;SDS011;39836;52.754;6.866;2023-10-19T03:56:50;64.47;;;27.10;;
53925;SDS011;39836;52.754;6.866;2023-10-19T03:59:17;66.45;;;27.45;;
53925;SDS011;39836;52.754;6.866;2023-10-19T04:01:43;70.63;;;27.67;;
53925;SDS011;39836;52.754;6.866;2023-10-19T04:04:10;78.47;;;27.55;;
53925;SDS011;39836;52.754;6.866;2023-10-19T04:06:36;73.05;;;27.65;;
53925;SDS011;39836;52.754;6.866;2023-10-19T04:09:05;68.60;;;26.40;;
53925;SDS011;39836;52.754;6.866;2023-10-19T04:11:34;60.63;;;25.23;;
53925;SDS011;39836;52.754;6.866;2023-10-19T04:14:13;59.45;;;25.60;;
53925;SDS011;39836;52.754;6.866;2023-10-19T04:16:40;64.15;;;24.90;;
53925;SDS011;39836;52.754;6.866;2023-10-19T04:19:10;57.67;;;23.85;;
53925;SDS011;39836;52.754;6.866;2023-10-19T04:21:36;58.42;;;23.60;;
53925;SDS011;39836;52.754;6.866;2023-10-19T04:24:05;57.03;;;23.23;;
53925;SDS011;39836;52.754;6.866;2023-10-19T04:26:32;57.50;;;22.42;;
53925;SDS011;39836;52.754;6.866;2023-10-19T04:29:02;54.60;;;22.73;;
53925;SDS011;39836;52.754;6.866;2023-10-19T04:31:38;54.75;;;21.65;;
53925;SDS011;39836;52.754;6.866;2023-10-19T04:34:19;58.13;;;22.05;;
53925;SDS011;39836;52.754;6.866;2023-10-19T04:36:49;50.13;;;21.33;;
53925;SDS011;39836;52.754;6.866;2023-10-19T04:39:16;61.13;;;21.50;;
53925;SDS011;39836;52.754;6.866;2023-10-19T04:41:44;73.95;;;30.00;;
53925;SDS011;39836;52.754;6.866;2023-10-19T04:44:10;75.07;;;34.53;;
53925;SDS011;39836;52.754;6.866;2023-10-19T04:46:36;81.40;;;34.25;;
53925;SDS011;39836;52.754;6.866;2023-10-19T04:49:02;92.70;;;35.75;;
53925;SDS011;39836;52.754;6.866;2023-10-19T04:51:29;86.00;;;36.22;;
53925;SDS011;39836;52.754;6.866;2023-10-19T04:53:55;77.38;;;35.88;;
53925;SDS011;39836;52.754;6.866;2023-10-19T04:56:21;83.20;;;36.13;;
53925;SDS011;39836;52.754;6.866;2023-10-19T04:58:47;87.93;;;37.10;;
53925;SDS011;39836;52.754;6.866;2023-10-19T05:01:13;77.68;;;35.40;;
53925;SDS011;39836;52.754;6.866;2023-10-19T05:03:40;74.22;;;36.10;;
53925;SDS011;39836;52.754;6.866;2023-10-19T05:06:06;92.90;;;37.83;;
53925;SDS011;39836;52.754;6.866;2023-10-19T05:08:32;84.00;;;36.33;;
53925;SDS011;39836;52.754;6.866;2023-10-19T05:10:58;83.75;;;36.70;;
53925;SDS011;39836;52.754;6.866;2023-10-19T05:13:26;93.53;;;37.95;;
53925;SDS011;39836;52.754;6.866;2023-10-19T05:15:55;93.28;;;37.85;;
53925;SDS011;39836;52.754;6.866;2023-10-19T05:18:23;93.00;;;36.55;;
53925;SDS011;39836;52.754;6.866;2023-10-19T05:20:50;87.70;;;35.45;;
53925;SDS011;39836;52.754;6.866;2023-10-19T05:23:25;81.05;;;34.95;;
53925;SDS011;39836;52.754;6.866;2023-10-19T05:25:53;73.53;;;33.30;;
53925;SDS011;39836;52.754;6.866;2023-10-19T05:28:24;66.55;;;33.08;;
53925;SDS011;39836;52.754;6.866;2023-10-19T05:30:50;83.80;;;34.78;;
53925;SDS011;39836;52.754;6.866;2023-10-19T05:33:16;53.67;;;24.67;;
53925;SDS011;39836;52.754;6.866;2023-10-19T05:35:45;54.97;;;24.60;;
53925;SDS011;39836;52.754;6.866;2023-10-19T05:38:15;60.55;;;24.05;;
53925;SDS011;39836;52.754;6.866;2023-10-19T05:40:42;55.65;;;24.52;;
53925;SDS011;39836;52.754;6.866;2023-10-19T05:43:11;57.67;;;23.33;;
53925;SDS011;39836;52.754;6.866;2023-10-19T05:45:37;59.88;;;23.05;;
53925;SDS011;39836;52.754;6.866;2023-10-19T05:48:04;55.70;;;24.48;;
53925;SDS011;39836;52.754;6.866;2023-10-19T05:50:32;57.83;;;23.45;;
53925;SDS011;39836;52.754;6.866;2023-10-19T05:53:01;55.47;;;22.42;;
53925;SDS011;39836;52.754;6.866;2023-10-19T05:55:30;52.22;;;24.02;;
53925;SDS011;39836;52.754;6.866;2023-10-19T05:57:57;53.83;;;23.35;;
53925;SDS011;39836;52.754;6.866;2023-10-19T06:00:22;58.30;;;26.55;;
53925;SDS011;39836;52.754;6.866;2023-10-19T06:02:50;60.58;;;26.73;;
53925;SDS011;39836;52.754;6.866;2023-10-19T06:05:17;60.05;;;27.48;;
53925;SDS011;39836;52.754;6.866;2023-10-19T06:07:47;56.35;;;26.63;;
53925;SDS011;39836;52.754;6.866;2023-10-19T06:10:17;52.97;;;26.92;;
53925;SDS011;39836;52.754;6.866;2023-10-19T06:12:51;58.35;;;26.00;;
53925;SDS011;39836;52.754;6.866;2023-10-19T06:15:17;57.20;;;26.95;;
53925;SDS011;39836;52.754;6.866;2023-10-19T06:17:46;60.05;;;28.15;;
53925;SDS011;39836;52.754;6.866;2023-10-19T06:20:13;61.40;;;28.05;;
53925;SDS011;39836;52.754;6.866;2023-10-19T06:22:48;60.22;;;26.85;;
53925;SDS011;39836;52.754;6.866;2023-10-19T06:25:29;60.90;;;26.85;;
53925;SDS011;39836;52.754;6.866;2023-10-19T06:27:55;61.88;;;29.08;;
53925;SDS011;39836;52.754;6.866;2023-10-19T06:30:22;67.60;;;30.42;;
53925;SDS011;39836;52.754;6.866;2023-10-19T06:32:55;66.03;;;29.95;;
53925;SDS011;39836;52.754;6.866;2023-10-19T06:35:25;68.18;;;30.95;;
53925;SDS011;39836;52.754;6.866;2023-10-19T06:37:52;66.50;;;29.73;;
53925;SDS011;39836;52.754;6.866;2023-10-19T06:40:20;65.15;;;29.27;;
53925;SDS011;39836;52.754;6.866;2023-10-19T06:42:47;63.97;;;29.15;;
53925;SDS011;39836;52.754;6.866;2023-10-19T06:45:14;71.45;;;30.17;;
53925;SDS011;39836;52.754;6.866;2023-10-19T06:47:44;68.03;;;30.45;;
53925;SDS011;39836;52.754;6.866;2023-10-19T06:50:12;68.25;;;31.83;;
53925;SDS011;39836;52.754;6.866;2023-10-19T06:52:41;67.53;;;30.40;;
53925;SDS011;39836;52.754;6.866;2023-10-19T06:55:09;67.72;;;31.33;;
53925;SDS011;39836;52.754;6.866;2023-10-19T06:57:42;66.32;;;32.47;;
53925;SDS011;39836;52.754;6.866;2023-10-19T07:00:12;79.60;;;33.58;;
53925;SDS011;39836;52.754;6.866;2023-10-19T07:02:40;68.80;;;31.83;;
53925;SDS011;39836;52.754;6.866;2023-10-19T07:05:07;68.45;;;31.15;;
53925;SDS011;39836;52.754;6.866;2023-10-19T07:07:40;57.63;;;29.15;;
53925;SDS011;39836;52.754;6.866;2023-10-19T07:10:07;58.97;;;29.85;;
53925;SDS011;39836;52.754;6.866;2023-10-19T07:12:34;67.40;;;30.85;;
53925;SDS011;39836;52.754;6.866;2023-10-19T07:15:07;72.28;;;32.10;;
53925;SDS011;39836;52.754;6.866;2023-10-19T07:17:37;68.18;;;30.98;;
53925;SDS011;39836;52.754;6.866;2023-10-19T07:20:03;81.30;;;34.47;;
53925;SDS011;39836;52.754;6.866;2023-10-19T07:22:34;66.32;;;31.92;;
53925;SDS011;39836;52.754;6.866;2023-10-19T07:25:07;80.13;;;33.35;;
53925;SDS011;39836;52.754;6.866;2023-10-19T07:27:34;86.40;;;33.75;;
53925;SDS011;39836;52.754;6.866;2023-10-19T07:30:00;73.57;;;32.65;;
53925;SDS011;39836;52.754;6.866;2023-10-19T07:32:30;69.22;;;33.00;;
53925;SDS011;39836;52.754;6.866;2023-10-19T07:34:56;76.03;;;32.60;;
53925;SDS011;39836;52.754;6.866;2023-10-19T07:37:22;78.10;;;32.88;;
53925;SDS011;39836;52.754;6.866;2023-10-19T07:39:48;72.03;;;31.40;;
53925;SDS011;39836;52.754;6.866;2023-10-19T07:42:14;72.30;;;31.58;;
53925;SDS011;39836;52.754;6.866;2023-10-19T07:44:40;70.95;;;33.20;;
53925;SDS011;39836;52.754;6.866;2023-10-19T07:47:06;77.65;;;32.00;;
53925;SDS011;39836;52.754;6.866;2023-10-19T07:49:35;75.68;;;33.88;;
53925;SDS011;39836;52.754;6.866;2023-10-19T07:52:04;77.30;;;32.50;;
53925;SDS011;39836;52.754;6.866;2023-10-19T07:54:32;72.10;;;31.08;;
53925;SDS011;39836;52.754;6.866;2023-10-19T07:56:58;80.43;;;33.25;;
53925;SDS011;39836;52.754;6.866;2023-10-19T07:59:28;85.78;;;34.00;;
53925;SDS011;39836;52.754;6.866;2023-10-19T08:01:54;79.80;;;34.08;;
53925;SDS011;39836;52.754;6.866;2023-10-19T08:04:20;82.63;;;34.45;;
53925;SDS011;39836;52.754;6.866;2023-10-19T08:06:45;88.05;;;36.08;;
53925;SDS011;39836;52.754;6.866;2023-10-19T08:09:12;84.45;;;37.17;;
53925;SDS011;39836;52.754;6.866;2023-10-19T08:11:38;74.95;;;33.65;;
53925;SDS011;39836;52.754;6.866;2023-10-19T08:14:04;89.30;;;35.28;;
53925;SDS011;39836;52.754;6.866;2023-10-19T08:16:30;73.78;;;34.53;;
53925;SDS011;39836;52.754;6.866;2023-10-19T08:18:57;79.15;;;34.17;;
53925;SDS011;39836;52.754;6.866;2023-10-19T08:21:23;76.78;;;35.20;;
53925;SDS011;39836;52.754;6.866;2023-10-19T08:23:48;79.63;;;35.55;;
53925;SDS011;39836;52.754;6.866;2023-10-19T08:26:14;72.32;;;33.75;;
53925;SDS011;39836;52.754;6.866;2023-10-19T08:28:40;70.93;;;34.80;;
53925;SDS011;39836;52.754;6.866;2023-10-19T08:31:07;80.93;;;34.58;;
53925;SDS011;39836;52.754;6.866;2023-10-19T08:33:35;76.13;;;33.25;;
53925;SDS011;39836;52.754;6.866;2023-10-19T08:36:04;72.25;;;34.13;;
53925;SDS011;39836;52.754;6.866;2023-10-19T08:38:30;70.15;;;32.45;;
53925;SDS011;39836;52.754;6.866;2023-10-19T08:40:55;73.18;;;33.05;;
53925;SDS011;39836;52.754;6.866;2023-10-19T08:43:22;76.57;;;34.35;;
53925;SDS011;39836;52.754;6.866;2023-10-19T08:45:49;85.93;;;35.45;;
53925;SDS011;39836;52.754;6.866;2023-10-19T08:48:15;72.20;;;34.70;;
53925;SDS011;39836;52.754;6.866;2023-10-19T08:50:41;78.47;;;36.78;;
53925;SDS011;39836;52.754;6.866;2023-10-19T08:53:07;78.03;;;35.85;;
53925;SDS011;39836;52.754;6.866;2023-10-19T08:55:33;72.07;;;35.55;;
53925;SDS011;39836;52.754;6.866;2023-10-19T08:57:59;75.28;;;35.88;;
53925;SDS011;39836;52.754;6.866;2023-10-19T09:00:26;79.13;;;34.72;;
53925;SDS011;39836;52.754;6.866;2023-10-19T09:02:52;76.43;;;36.80;;
53925;SDS011;39836;52.754;6.866;2023-10-19T09:05:18;77.80;;;35.40;;
53925;SDS011;39836;52.754;6.866;2023-10-19T09:07:47;79.25;;;36.35;;
53925;SDS011;39836;52.754;6.866;2023-10-19T09:10:26;86.32;;;36.58;;
53925;SDS011;39836;52.754;6.866;2023-10-19T09:13:06;75.22;;;35.05;;
53925;SDS011;39836;52.754;6.866;2023-10-19T09:15:37;79.63;;;35.47;;
53925;SDS011;39836;52.754;6.866;2023-10-19T09:20:54;74.50;;;33.63;;
53925;SDS011;39836;52.754;6.866;2023-10-19T09:23:32;82.82;;;37.60;;
53925;SDS011;39836;52.754;6.866;2023-10-19T09:26:01;77.47;;;35.20;;
53925;SDS011;39836;52.754;6.866;2023-10-19T09:28:34;81.75;;;36.47;;
53925;SDS011;39836;52.754;6.866;2023-10-19T09:31:01;94.28;;;37.08;;
53925;SDS011;39836;52.754;6.866;2023-10-19T09:33:28;83.30;;;36.75;;
53925;SDS011;39836;52.754;6.866;2023-10-19T09:35:55;78.65;;;33.80;;
53925;SDS011;39836;52.754;6.866;2023-10-19T09:38:26;70.93;;;33.50;;
53925;SDS011;39836;52.754;6.866;2023-10-19T09:40:52;78.50;;;34.95;;
53925;SDS011;39836;52.754;6.866;2023-10-19T09:43:25;76.30;;;34.80;;
53925;SDS011;39836;52.754;6.866;2023-10-19T09:46:08;69.13;;;34.70;;
53925;SDS011;39836;52.754;6.866;2023-10-19T09:48:40;73.63;;;33.72;;
53925;SDS011;39836;52.754;6.866;2023-10-19T09:51:07;65.40;;;32.35;;
53925;SDS011;39836;52.754;6.866;2023-10-19T09:53:34;71.22;;;34.47;;
53925;SDS011;39836;52.754;6.866;2023-10-19T09:56:03;71.13;;;34.10;;
53925;SDS011;39836;52.754;6.866;2023-10-19T09:59:05;70.55;;;34.97;;
53925;SDS011;39836;52.754;6.866;2023-10-19T10:01:27;67.35;;;34.35;;
53925;SDS011;39836;52.754;6.866;2023-10-19T10:03:53;68.95;;;32.47;;
53925;SDS011;39836;52.754;6.866;2023-10-19T10:08:54;67.85;;;33.50;;
53925;SDS011;39836;52.754;6.866;2023-10-19T10:11:22;67.70;;;33.83;;
53925;SDS011;39836;52.754;6.866;2023-10-19T10:13:50;69.68;;;33.83;;
53925;SDS011;39836;52.754;6.866;2023-10-19T10:16:22;62.25;;;31.35;;
53925;SDS011;39836;52.754;6.866;2023-10-19T10:18:50;59.35;;;29.00;;
53925;SDS011;39836;52.754;6.866;2023-10-19T10:21:19;59.25;;;31.52;;
53925;SDS011;39836;52.754;6.866;2023-10-19T10:23:47;59.65;;;30.40;;
53925;SDS011;39836;52.754;6.866;2023-10-19T10:26:13;63.28;;;32.28;;
53925;SDS011;39836;52.754;6.866;2023-10-19T10:28:40;56.60;;;30.42;;
53925;SDS011;39836;52.754;6.866;2023-10-19T10:33:43;60.53;;;29.63;;
53925;SDS011;39836;52.754;6.866;2023-10-19T10:36:14;57.38;;;29.45;;
53925;SDS011;39836;52.754;6.866;2023-10-19T10:38:41;64.85;;;32.15;;
53925;SDS011;39836;52.754;6.866;2023-10-19T10:41:08;56.65;;;30.50;;
53925;SDS011;39836;52.754;6.866;2023-10-19T10:43:47;55.08;;;29.70;;
53925;SDS011;39836;52.754;6.866;2023-10-19T10:46:20;57.97;;;29.48;;
53925;SDS011;39836;52.754;6.866;2023-10-19T10:48:48;55.17;;;30.85;;
53925;SDS011;39836;52.754;6.866;2023-10-19T10:51:15;56.47;;;29.45;;
53925;SDS011;39836;52.754;6.866;2023-10-19T10:53:41;53.70;;;29.02;;
53925;SDS011;39836;52.754;6.866;2023-10-19T10:56:07;52.65;;;29.00;;
53925;SDS011;39836;52.754;6.866;2023-10-19T10:58:33;53.38;;;30.58;;
53925;SDS011;39836;52.754;6.866;2023-10-19T11:00:58;56.45;;;31.55;;
53925;SDS011;39836;52.754;6.866;2023-10-19T11:03:24;58.60;;;32.35;;
53925;SDS011;39836;52.754;6.866;2023-10-19T11:05:55;56.88;;;31.08;;
53925;SDS011;39836;52.754;6.866;2023-10-19T11:08:27;53.58;;;29.00;;
53925;SDS011;39836;52.754;6.866;2023-10-19T11:10:53;49.47;;;29.27;;
53925;SDS011;39836;52.754;6.866;2023-10-19T11:13:22;50.33;;;30.55;;
53925;SDS011;39836;52.754;6.866;2023-10-19T11:15:53;52.50;;;30.33;;
53925;SDS011;39836;52.754;6.866;2023-10-19T11:18:28;52.90;;;29.17;;
53925;SDS011;39836;52.754;6.866;2023-10-19T11:21:14;48.95;;;30.17;;
53925;SDS011;39836;52.754;6.866;2023-10-19T11:26:19;53.10;;;29.77;;
53925;SDS011;39836;52.754;6.866;2023-10-19T11:28:46;50.40;;;29.50;;
53925;SDS011;39836;52.754;6.866;2023-10-19T11:31:22;61.00;;;30.48;;
53925;SDS011;39836;52.754;6.866;2023-10-19T11:33:49;46.28;;;28.58;;
53925;SDS011;39836;52.754;6.866;2023-10-19T11:36:17;50.22;;;29.35;;
53925;SDS011;39836;52.754;6.866;2023-10-19T11:38:47;56.25;;;31.15;;
53925;SDS011;39836;52.754;6.866;2023-10-19T11:41:14;50.67;;;30.50;;
53925;SDS011;39836;52.754;6.866;2023-10-19T11:43:41;47.95;;;31.05;;
53925;SDS011;39836;52.754;6.866;2023-10-19T11:46:07;51.22;;;31.40;;
53925;SDS011;39836;52.754;6.866;2023-10-19T11:48:34;52.25;;;31.17;;
53925;SDS011;39836;52.754;6.866;2023-10-19T11:51:01;53.53;;;32.38;;
53925;SDS011;39836;52.754;6.866;2023-10-19T11:53:32;57.65;;;33.05;;
53925;SDS011;39836;52.754;6.866;2023-10-19T11:56:02;53.88;;;33.35;;
53925;SDS011;39836;52.754;6.866;2023-10-19T11:58:31;58.15;;;31.02;;
53925;SDS011;39836;52.754;6.866;2023-10-19T12:00:58;48.90;;;30.40;;
53925;SDS011;39836;52.754;6.866;2023-10-19T12:03:24;48.20;;;30.90;;
53925;SDS011;39836;52.754;6.866;2023-10-19T12:05:50;47.88;;;29.15;;
53925;SDS011;39836;52.754;6.866;2023-10-19T12:08:18;43.92;;;29.55;;
53925;SDS011;39836;52.754;6.866;2023-10-19T12:10:44;44.90;;;30.52;;
53925;SDS011;39836;52.754;6.866;2023-10-19T12:13:10;42.13;;;30.02;;
53925;SDS011;39836;52.754;6.866;2023-10-19T12:15:35;42.05;;;28.17;;
53925;SDS011;39836;52.754;6.866;2023-10-19T12:18:01;42.75;;;27.55;;
53925;SDS011;39836;52.754;6.866;2023-10-19T12:20:28;45.90;;;26.15;;
53925;SDS011;39836;52.754;6.866;2023-10-19T12:22:56;40.05;;;26.90;;
53925;SDS011;39836;52.754;6.866;2023-10-19T12:25:24;44.65;;;28.48;;
53925;SDS011;39836;52.754;6.866;2023-10-19T12:27:57;40.53;;;25.88;;
53925;SDS011;39836;52.754;6.866;2023-10-19T12:30:24;36.10;;;24.95;;
53925;SDS011;39836;52.754;6.866;2023-10-19T12:32:59;43.35;;;27.98;;
53925;SDS011;39836;52.754;6.866;2023-10-19T12:35:25;38.70;;;26.13;;
53925;SDS011;39836;52.754;6.866;2023-10-19T12:38:07;36.95;;;24.80;;
53925;SDS011;39836;52.754;6.866;2023-10-19T12:40:40;38.35;;;25.70;;
53925;SDS011;39836;52.754;6.866;2023-10-19T12:43:07;37.10;;;24.52;;
53925;SDS011;39836;52.754;6.866;2023-10-19T12:45:35;33.30;;;22.35;;
53925;SDS011;39836;52.754;6.866;2023-10-19T12:48:04;34.65;;;22.45;;
53925;SDS011;39836;52.754;6.866;2023-10-19T12:50:31;34.35;;;22.77;;
53925;SDS011;39836;52.754;6.866;2023-10-19T12:52:59;37.63;;;23.58;;
53925;SDS011;39836;52.754;6.866;2023-10-19T12:55:25;34.97;;;23.10;;
53925;SDS011;39836;52.754;6.866;2023-10-19T12:57:52;32.08;;;23.10;;
53925;SDS011;39836;52.754;6.866;2023-10-19T13:00:18;36.25;;;23.65;;
53925;SDS011;39836;52.754;6.866;2023-10-19T13:03:04;39.45;;;25.10;;
53925;SDS011;39836;52.754;6.866;2023-10-19T13:05:34;44.72;;;25.02;;
53925;SDS011;39836;52.754;6.866;2023-10-19T13:08:00;33.55;;;23.45;;
53925;SDS011;39836;52.754;6.866;2023-10-19T13:10:28;37.75;;;24.60;;
53925;SDS011;39836;52.754;6.866;2023-10-19T13:13:00;37.10;;;23.80;;
53925;SDS011;39836;52.754;6.866;2023-10-19T13:15:31;37.67;;;26.85;;
53925;SDS011;39836;52.754;6.866;2023-10-19T13:18:01;42.50;;;26.48;;
53925;SDS011;39836;52.754;6.866;2023-10-19T13:20:32;40.38;;;26.48;;
53925;SDS011;39836;52.754;6.866;2023-10-19T13:23:02;35.88;;;26.23;;
53925;SDS011;39836;52.754;6.866;2023-10-19T13:25:32;42.35;;;26.95;;
53925;SDS011;39836;52.754;6.866;2023-10-19T13:28:12;40.63;;;26.45;;
53925;SDS011;39836;52.754;6.866;2023-10-19T13:30:42;41.53;;;27.08;;
53925;SDS011;39836;52.754;6.866;2023-10-19T13:33:12;39.53;;;26.42;;
53925;SDS011;39836;52.754;6.866;2023-10-19T13:35:39;38.92;;;26.23;;
53925;SDS011;39836;52.754;6.866;2023-10-19T13:38:07;40.50;;;25.83;;
53925;SDS011;39836;52.754;6.866;2023-10-19T13:40:37;37.83;;;25.15;;
53925;SDS011;39836;52.754;6.866;2023-10-19T13:43:04;38.65;;;25.90;;
53925;SDS011;39836;52.754;6.866;2023-10-19T13:45:35;40.38;;;26.70;;
53925;SDS011;39836;52.754;6.866;2023-10-19T13:48:01;38.67;;;24.30;;
53925;SDS011;39836;52.754;6.866;2023-10-19T13:50:29;40.42;;;26.27;;
53925;SDS011;39836;52.754;6.866;2023-10-19T13:52:55;38.45;;;25.52;;
53925;SDS011;39836;52.754;6.866;2023-10-19T13:55:24;44.63;;;25.13;;
53925;SDS011;39836;52.754;6.866;2023-10-19T13:57:50;48.28;;;26.02;;
53925;SDS011;39836;52.754;6.866;2023-10-19T14:00:17;40.67;;;27.40;;
53925;SDS011;39836;52.754;6.866;2023-10-19T14:02:53;41.63;;;26.08;;
53925;SDS011;39836;52.754;6.866;2023-10-19T14:05:19;39.33;;;26.15;;
53925;SDS011;39836;52.754;6.866;2023-10-19T14:07:45;43.13;;;25.35;;
53925;SDS011;39836;52.754;6.866;2023-10-19T14:10:12;42.88;;;25.35;;
53925;SDS011;39836;52.754;6.866;2023-10-19T14:12:42;40.65;;;25.63;;
53925;SDS011;39836;52.754;6.866;2023-10-19T14:15:15;45.88;;;25.92;;
53925;SDS011;39836;52.754;6.866;2023-10-19T14:17:45;37.78;;;24.65;;
53925;SDS011;39836;52.754;6.866;2023-10-19T14:20:13;44.70;;;26.42;;
53925;SDS011;39836;52.754;6.866;2023-10-19T14:22:41;38.22;;;25.60;;
53925;SDS011;39836;52.754;6.866;2023-10-19T14:25:11;41.42;;;26.02;;
53925;SDS011;39836;52.754;6.866;2023-10-19T14:27:48;40.53;;;25.58;;
53925;SDS011;39836;52.754;6.866;2023-10-19T14:30:23;39.90;;;26.00;;
53925;SDS011;39836;52.754;6.866;2023-10-19T14:32:50;38.55;;;24.20;;
53925;SDS011;39836;52.754;6.866;2023-10-19T14:35:17;41.00;;;25.70;;
53925;SDS011;39836;52.754;6.866;2023-10-19T14:37:48;38.58;;;24.33;;
53925;SDS011;39836;52.754;6.866;2023-10-19T14:40:19;42.03;;;24.63;;
53925;SDS011;39836;52.754;6.866;2023-10-19T14:42:50;38.70;;;25.25;;